createdAt,value
2023-05-11T00:00:37.091Z,73.02
2023-05-11T00:03:03.850Z,73.21
2023-05-11T00:05:30.461Z,73.90
2023-05-11T00:07:56.972Z,75.29
2023-05-11T00:10:23.547Z,75.34
2023-05-11T00:12:49.988Z,75.49
2023-05-11T00:15:16.485Z,75.76
2023-05-11T00:17:42.911Z,76.30
2023-05-11T00:20:09.785Z,75.46
2023-05-11T00:22:36.343Z,76.57
2023-05-11T00:25:03.093Z,77.57
2023-05-11T00:27:29.610Z,78.07
2023-05-11T00:29:56.676Z,78.72
2023-05-11T00:32:23.153Z,79.86
2023-05-11T00:34:49.697Z,79.17
2023-05-11T00:37:16.227Z,79.66
2023-05-11T00:39:42.721Z,80.60
2023-05-11T00:42:10.752Z,79.71
2023-05-11T00:44:37.281Z,79.54
2023-05-11T00:47:04.663Z,79.38
2023-05-11T00:49:31.314Z,78.85
2023-05-11T00:51:57.860Z,78.75
2023-05-11T00:54:24.748Z,77.98
2023-05-11T00:56:51.774Z,77.40
2023-05-11T00:59:18.735Z,77.21
2023-05-11T01:01:45.573Z,76.06
2023-05-11T01:04:12.876Z,76.17
2023-05-11T01:07:02.267Z,75.61
2023-05-11T01:09:44.928Z,75.46
2023-05-11T01:12:26.142Z,75.61
2023-05-11T01:15:27.511Z,75.69
2023-05-11T01:18:06.178Z,75.84
2023-05-11T01:20:32.945Z,75.80
2023-05-11T01:23:08.223Z,75.88
2023-05-11T01:26:19.363Z,75.43
2023-05-11T01:29:25.393Z,75.41
2023-05-11T01:31:55.460Z,75.09
2023-05-11T01:34:25.552Z,74.25
2023-05-11T01:36:59.281Z,74.84
2023-05-11T01:39:32.630Z,76.97
2023-05-11T01:42:07.576Z,78.16
2023-05-11T01:44:36.370Z,76.92
2023-05-11T01:47:04.345Z,76.95
2023-05-11T01:49:35.661Z,76.75
2023-05-11T01:52:03.597Z,76.08
2023-05-11T01:54:31.374Z,75.55
2023-05-11T01:57:00.367Z,76.21
2023-05-11T01:59:28.133Z,76.32
2023-05-11T02:01:55.037Z,76.58
2023-05-11T02:04:23.461Z,76.33
2023-05-11T02:06:52.340Z,75.96
2023-05-11T02:09:20.961Z,75.97
2023-05-11T02:11:49.146Z,77.09
2023-05-11T02:14:20.314Z,78.06
2023-05-11T02:16:50.055Z,78.47
2023-05-11T02:19:18.236Z,78.75
2023-05-11T02:21:46.540Z,78.35
2023-05-11T02:24:14.375Z,79.27
2023-05-11T02:26:41.323Z,80.27
2023-05-11T02:29:07.810Z,80.27
2023-05-11T02:31:42.770Z,80.88
2023-05-11T02:34:23.566Z,80.66
2023-05-11T02:36:53.785Z,80.61
2023-05-11T02:39:22.310Z,80.43
2023-05-11T02:41:56.266Z,80.47
2023-05-11T02:44:27.098Z,80.36
2023-05-11T02:46:55.820Z,79.93
2023-05-11T02:49:25.391Z,80.25
2023-05-11T02:51:54.885Z,80.15
2023-05-11T02:54:23.728Z,80.67
2023-05-11T02:56:53.123Z,80.88
2023-05-11T02:59:20.885Z,80.82
2023-05-11T03:01:48.135Z,80.71
2023-05-11T03:04:14.975Z,81.15
2023-05-11T03:06:41.748Z,81.08
2023-05-11T03:09:10.306Z,81.12
2023-05-11T03:11:42.698Z,80.83
2023-05-11T03:14:09.376Z,80.10
2023-05-11T03:16:37.799Z,79.84
2023-05-11T03:19:07.648Z,79.60
2023-05-11T03:21:36.697Z,79.97
2023-05-11T03:24:06.264Z,80.26
2023-05-11T03:26:34.272Z,80.63
2023-05-11T03:29:02.472Z,81.35
2023-05-11T03:31:29.405Z,81.49
2023-05-11T03:33:58.556Z,81.36
2023-05-11T03:36:27.101Z,81.81
2023-05-11T03:38:58.748Z,81.80
2023-05-11T03:41:34.060Z,81.84
2023-05-11T03:44:05.097Z,81.46
2023-05-11T03:46:35.773Z,80.98
2023-05-11T03:49:04.497Z,81.01
2023-05-11T03:51:32.813Z,81.61
2023-05-11T03:53:59.939Z,81.79
2023-05-11T03:56:26.812Z,81.81
2023-05-11T03:58:53.847Z,81.39
2023-05-11T04:01:22.731Z,80.97
2023-05-11T04:03:53.278Z,80.86
2023-05-11T04:06:20.917Z,80.68
2023-05-11T04:08:54.526Z,80.74
2023-05-11T04:11:22.109Z,80.44
2023-05-11T04:13:48.512Z,80.65
2023-05-11T04:16:14.965Z,80.55
2023-05-11T04:18:41.563Z,80.65
2023-05-11T04:21:08.025Z,80.59
2023-05-11T04:23:34.452Z,80.21
2023-05-11T04:26:01.008Z,80.38
2023-05-11T04:28:30.233Z,80.44
2023-05-11T04:30:57.810Z,80.42
2023-05-11T04:33:24.528Z,80.55
2023-05-11T04:35:55.624Z,80.66
2023-05-11T04:38:24.313Z,80.84
2023-05-11T04:40:50.882Z,80.40
2023-05-11T04:43:20.486Z,80.64
2023-05-11T04:45:50.997Z,80.39
2023-05-11T04:48:22.645Z,80.29
2023-05-11T04:50:49.091Z,80.42
2023-05-11T04:53:17.866Z,80.16
2023-05-11T04:55:46.057Z,80.33
2023-05-11T04:58:12.548Z,80.22
2023-05-11T05:00:39.082Z,80.43
2023-05-11T05:03:05.568Z,80.31
2023-05-11T05:05:32.531Z,79.92
2023-05-11T05:07:58.965Z,79.98
2023-05-11T05:10:25.493Z,79.83
2023-05-11T05:12:51.893Z,79.60
2023-05-11T05:15:18.390Z,79.63
2023-05-11T05:17:45.163Z,79.45
2023-05-11T05:20:12.622Z,79.49
2023-05-11T05:22:39.124Z,79.34
2023-05-11T05:25:06.236Z,79.43
2023-05-11T05:27:34.764Z,78.99
2023-05-11T05:30:04.475Z,79.08
2023-05-11T05:32:31.121Z,79.09
2023-05-11T05:34:57.582Z,79.03
2023-05-11T05:37:24.175Z,78.13
2023-05-11T05:39:50.641Z,78.38
2023-05-11T05:42:17.118Z,77.98
2023-05-11T05:44:44.386Z,78.08
2023-05-11T05:47:11.266Z,78.00
2023-05-11T05:49:37.928Z,78.23
2023-05-11T05:52:06.305Z,77.69
2023-05-11T05:54:32.830Z,77.48
2023-05-11T05:56:59.252Z,77.12
2023-05-11T05:59:26.753Z,76.56
2023-05-11T06:01:56.327Z,76.37
2023-05-11T06:04:24.321Z,76.02
2023-05-11T06:06:50.907Z,76.26
2023-05-11T06:09:17.797Z,76.15
2023-05-11T06:11:44.189Z,76.19
2023-05-11T06:14:10.968Z,75.82
2023-05-11T06:16:37.780Z,76.04
2023-05-11T06:19:04.407Z,75.51
2023-05-11T06:21:31.384Z,75.63
2023-05-11T06:23:58.392Z,75.61
2023-05-11T06:26:28.530Z,74.96
2023-05-11T06:28:55.538Z,75.53
2023-05-11T06:31:24.278Z,75.40
2023-05-11T06:33:52.083Z,74.79
2023-05-11T06:36:22.864Z,73.45
2023-05-11T06:38:49.388Z,73.09
2023-05-11T06:41:15.805Z,72.77
2023-05-11T06:43:42.346Z,72.82
2023-05-11T06:46:19.814Z,72.62
2023-05-11T06:48:46.364Z,73.23
2023-05-11T06:51:12.869Z,72.21
2023-05-11T06:53:39.319Z,72.20
2023-05-11T06:56:06.497Z,72.04
2023-05-11T06:58:32.962Z,71.69
2023-05-11T07:00:59.439Z,71.06
2023-05-11T07:03:25.975Z,71.24
2023-05-11T07:05:52.380Z,71.28
2023-05-11T07:08:18.834Z,71.03
2023-05-11T07:10:45.299Z,70.80
2023-05-11T07:13:11.848Z,71.04
2023-05-11T07:15:38.242Z,70.92
2023-05-11T07:18:04.852Z,70.22
2023-05-11T07:20:32.127Z,70.05
2023-05-11T07:22:59.271Z,70.48
2023-05-11T07:25:25.952Z,70.22
2023-05-11T07:27:52.634Z,69.52
2023-05-11T07:30:19.212Z,68.08
2023-05-11T07:32:46.594Z,69.09
2023-05-11T07:35:13.200Z,68.08
2023-05-11T07:37:39.657Z,68.02
2023-05-11T07:40:06.926Z,67.66
2023-05-11T07:42:33.428Z,67.75
2023-05-11T07:44:59.889Z,68.43
2023-05-11T07:47:26.965Z,67.85
2023-05-11T07:49:53.607Z,66.50
2023-05-11T07:52:20.034Z,67.22
2023-05-11T07:54:46.454Z,67.03
2023-05-11T07:57:13.947Z,66.69
2023-05-11T07:59:41.017Z,74.18
2023-05-11T08:02:11.458Z,75.86
2023-05-11T08:04:39.532Z,67.31
2023-05-11T08:07:05.952Z,65.49
2023-05-11T08:09:32.542Z,65.52
2023-05-11T08:12:01.605Z,65.41
2023-05-11T08:14:28.227Z,64.94
2023-05-11T08:16:54.739Z,65.29
2023-05-11T08:19:21.408Z,64.42
2023-05-11T08:21:47.927Z,64.78
2023-05-11T08:24:14.434Z,64.36
2023-05-11T08:26:40.892Z,64.36
2023-05-11T08:29:07.695Z,64.86
2023-05-11T08:31:34.232Z,63.24
2023-05-11T08:34:00.891Z,62.66
2023-05-11T08:36:27.377Z,62.39
2023-05-11T08:38:57.276Z,62.11
2023-05-11T08:41:25.956Z,62.41
2023-05-11T08:43:52.667Z,62.95
2023-05-11T08:46:23.757Z,62.36
2023-05-11T08:48:50.659Z,61.86
2023-05-11T08:51:17.145Z,62.01
2023-05-11T08:53:43.716Z,62.30
2023-05-11T08:56:11.775Z,60.12
2023-05-11T08:58:39.816Z,61.10
2023-05-11T09:01:07.372Z,60.96
2023-05-11T09:03:37.003Z,60.51
2023-05-11T09:06:07.126Z,60.67
2023-05-11T09:08:38.171Z,59.42
2023-05-11T09:11:06.081Z,59.16
2023-05-11T09:13:33.081Z,59.49
2023-05-11T09:15:59.678Z,60.01
2023-05-11T09:18:26.860Z,58.64
2023-05-11T09:20:53.598Z,60.52
2023-05-11T09:23:26.037Z,61.53
2023-05-11T09:25:52.804Z,61.39
2023-05-11T09:28:25.696Z,61.03
2023-05-11T09:30:53.467Z,60.73
2023-05-11T09:33:25.724Z,59.38
2023-05-11T09:35:53.160Z,58.95
2023-05-11T09:38:20.667Z,59.52
2023-05-11T09:40:52.145Z,58.86
2023-05-11T09:43:27.285Z,59.59
2023-05-11T09:45:56.188Z,58.55
2023-05-11T09:48:29.051Z,58.13
2023-05-11T09:51:01.404Z,58.78
2023-05-11T09:53:35.743Z,59.93
2023-05-11T09:56:02.264Z,59.63
2023-05-11T09:58:45.744Z,60.20
2023-05-11T10:01:12.260Z,60.27
2023-05-11T10:03:49.134Z,59.21
2023-05-11T10:06:17.532Z,58.26
2023-05-11T10:08:45.981Z,58.34
2023-05-11T10:11:12.484Z,58.13
2023-05-11T10:13:39.766Z,57.50
2023-05-11T10:16:08.685Z,56.81
2023-05-11T10:18:36.809Z,56.87
2023-05-11T10:21:05.630Z,56.96
2023-05-11T10:23:33.718Z,56.79
2023-05-11T10:26:00.966Z,56.86
2023-05-11T10:30:54.852Z,58.48
2023-05-11T10:33:21.628Z,59.32
2023-05-11T10:35:48.868Z,59.80
2023-05-11T10:38:16.308Z,59.58
2023-05-11T10:40:45.674Z,58.05
2023-05-11T10:43:34.276Z,58.56
2023-05-11T10:46:06.524Z,57.44
2023-05-11T10:48:50.650Z,57.42
2023-05-11T10:51:50.832Z,55.36
2023-05-11T10:54:33.372Z,56.31
2023-05-11T10:57:33.872Z,57.66
2023-05-11T11:00:31.805Z,57.26
2023-05-11T11:03:00.063Z,56.18
2023-05-11T11:05:34.958Z,53.45
2023-05-11T11:08:05.854Z,54.27
2023-05-11T11:10:34.784Z,54.28
2023-05-11T11:13:12.023Z,53.59
2023-05-11T11:16:02.785Z,52.81
2023-05-11T11:18:31.320Z,53.63
2023-05-11T11:20:58.973Z,54.37
2023-05-11T11:23:41.402Z,53.49
2023-05-11T11:26:10.184Z,55.02
2023-05-11T11:28:57.109Z,54.35
2023-05-11T11:31:26.158Z,54.38
2023-05-11T11:33:53.535Z,51.67
2023-05-11T11:36:54.900Z,52.57
2023-05-11T11:39:22.331Z,52.72
2023-05-11T11:42:04.611Z,51.52
2023-05-11T11:44:31.379Z,51.52
2023-05-11T11:47:16.959Z,50.92
2023-05-11T11:49:45.625Z,51.34
2023-05-11T11:52:35.926Z,51.87
2023-05-11T11:55:04.053Z,51.13
2023-05-11T11:57:32.445Z,50.65
2023-05-11T12:00:13.048Z,51.66
2023-05-11T12:02:44.790Z,50.91
2023-05-11T12:05:22.949Z,50.81
2023-05-11T12:07:51.487Z,50.79
2023-05-11T12:10:20.309Z,51.16
2023-05-11T12:12:48.635Z,52.30
2023-05-11T12:15:25.517Z,50.79
2023-05-11T12:17:52.134Z,51.23
2023-05-11T12:20:20.041Z,51.44
2023-05-11T12:22:48.941Z,51.12
2023-05-11T12:25:19.476Z,52.12
2023-05-11T12:27:55.280Z,51.14
2023-05-11T12:30:27.145Z,48.94
2023-05-11T12:35:28.868Z,48.67
2023-05-11T12:37:57.345Z,48.15
2023-05-11T12:40:25.119Z,48.54
2023-05-11T12:42:56.686Z,47.90
2023-05-11T12:45:24.676Z,48.04
2023-05-11T12:47:56.222Z,48.04
2023-05-11T12:50:23.095Z,47.73
2023-05-11T12:52:50.331Z,47.35
2023-05-11T12:55:30.519Z,47.00
2023-05-11T12:58:12.941Z,47.61
2023-05-11T13:00:56.437Z,47.46
2023-05-11T13:03:26.068Z,47.26
2023-05-11T13:06:11.855Z,47.15
2023-05-11T13:08:44.377Z,47.83
2023-05-11T13:11:25.665Z,47.22
2023-05-11T13:13:57.000Z,47.03
2023-05-11T13:16:26.926Z,47.56
2023-05-11T13:18:59.962Z,47.12
2023-05-11T13:21:26.694Z,48.55
2023-05-11T13:23:54.409Z,48.04
2023-05-11T13:26:25.510Z,48.35
2023-05-11T13:29:08.729Z,48.33
2023-05-11T13:31:51.965Z,48.86
2023-05-11T13:34:19.854Z,49.46
2023-05-11T13:36:47.077Z,49.07
2023-05-11T13:39:13.609Z,49.41
2023-05-11T13:41:40.117Z,50.34
2023-05-11T13:44:08.824Z,50.45
2023-05-11T13:46:35.760Z,50.81
2023-05-11T13:49:03.708Z,51.05
2023-05-11T13:51:30.950Z,51.13
2023-05-11T13:53:59.212Z,51.76
2023-05-11T13:56:26.019Z,53.45
2023-05-11T13:58:52.521Z,60.92
2023-05-11T14:01:19.016Z,65.32
2023-05-11T14:03:45.548Z,68.96
2023-05-11T14:06:12.520Z,72.67
2023-05-11T14:08:38.903Z,75.95
2023-05-11T14:11:05.502Z,75.92
2023-05-11T14:13:31.954Z,79.63
2023-05-11T14:15:58.480Z,80.95
2023-05-11T14:18:25.966Z,82.37
2023-05-11T14:20:53.815Z,82.19
2023-05-11T14:23:20.232Z,81.68
2023-05-11T14:25:46.680Z,80.19
2023-05-11T14:28:13.181Z,81.35
2023-05-11T14:30:39.635Z,81.42
2023-05-11T14:33:06.204Z,82.70
2023-05-11T14:35:32.812Z,81.48
2023-05-11T14:37:59.273Z,82.57
2023-05-11T14:40:25.751Z,83.75
2023-05-11T14:42:52.306Z,83.71
2023-05-11T14:45:18.892Z,84.67
2023-05-11T14:47:45.608Z,84.41
2023-05-11T14:50:12.129Z,86.34
2023-05-11T14:52:38.564Z,84.72
2023-05-11T14:55:05.674Z,85.48
2023-05-11T14:57:32.856Z,85.78
2023-05-11T15:00:00.658Z,84.74
2023-05-11T15:02:28.350Z,85.26
2023-05-11T15:04:55.417Z,86.17
2023-05-11T15:07:21.845Z,86.40
2023-05-11T15:09:48.359Z,85.75
2023-05-11T15:12:14.852Z,85.23
2023-05-11T15:14:41.245Z,84.25
2023-05-11T15:17:07.725Z,82.90
2023-05-11T15:19:34.170Z,83.61
2023-05-11T15:22:00.702Z,82.92
2023-05-11T15:24:27.135Z,81.18
2023-05-11T15:26:53.554Z,80.75
2023-05-11T15:29:20.710Z,82.36
2023-05-11T15:31:47.343Z,84.41
2023-05-11T15:34:15.200Z,82.37
2023-05-11T15:36:41.734Z,80.67
2023-05-11T15:39:09.185Z,80.20
2023-05-11T15:41:35.749Z,79.52
2023-05-11T15:44:02.411Z,79.73
2023-05-11T15:46:30.277Z,81.34
2023-05-11T15:48:59.079Z,78.17
2023-05-11T15:51:26.564Z,79.39
2023-05-11T15:53:54.368Z,78.70
2023-05-11T15:56:22.469Z,81.53
2023-05-11T15:58:48.887Z,80.84
2023-05-11T16:01:15.367Z,79.17
2023-05-11T16:03:41.895Z,77.98
2023-05-11T16:06:08.448Z,78.99
2023-05-11T16:08:34.846Z,80.34
2023-05-11T16:11:01.286Z,81.13
2023-05-11T16:13:27.675Z,78.94
2023-05-11T16:15:54.233Z,78.71
2023-05-11T16:18:20.808Z,78.89
2023-05-11T16:20:47.296Z,79.67
2023-05-11T16:23:13.820Z,79.93
2023-05-11T16:25:40.277Z,80.80
2023-05-11T16:28:06.818Z,82.03
2023-05-11T16:30:33.318Z,81.91
2023-05-11T16:32:59.818Z,82.35
2023-05-11T16:35:26.837Z,81.85
2023-05-11T16:37:53.994Z,82.18
2023-05-11T16:40:21.571Z,82.29
2023-05-11T16:42:48.857Z,82.51
2023-05-11T16:45:16.441Z,81.85
2023-05-11T16:47:45.340Z,82.00
2023-05-11T16:50:15.974Z,80.00
2023-05-11T16:52:42.680Z,81.40
2023-05-11T16:55:09.789Z,81.09
2023-05-11T16:57:36.356Z,81.68
2023-05-11T17:00:03.083Z,82.02
2023-05-11T17:02:29.727Z,81.84
2023-05-11T17:04:56.277Z,82.04
2023-05-11T17:07:22.838Z,81.58
2023-05-11T17:09:52.060Z,81.65
2023-05-11T17:12:18.553Z,81.01
2023-05-11T17:14:44.974Z,81.25
2023-05-11T17:17:11.518Z,81.41
2023-05-11T17:19:38.347Z,81.48
2023-05-11T17:22:07.292Z,82.36
2023-05-11T17:24:33.833Z,82.49
2023-05-11T17:27:00.627Z,83.41
2023-05-11T17:29:27.101Z,83.60
2023-05-11T17:31:53.652Z,83.62
2023-05-11T17:34:22.095Z,82.95
2023-05-11T17:36:50.283Z,82.19
2023-05-11T17:39:17.056Z,80.54
2023-05-11T17:41:43.550Z,81.14
2023-05-11T17:44:10.060Z,85.05
2023-05-11T17:46:36.639Z,85.63
2023-05-11T17:49:03.945Z,84.39
2023-05-11T17:51:31.235Z,83.24
2023-05-11T17:53:57.705Z,81.83
2023-05-11T17:56:24.199Z,77.57
2023-05-11T17:58:51.475Z,78.04
2023-05-11T18:01:18.187Z,79.45
2023-05-11T18:03:45.291Z,80.28
2023-05-11T18:06:11.810Z,80.84
2023-05-11T18:08:38.335Z,81.87
2023-05-11T18:11:05.200Z,81.75
2023-05-11T18:13:31.698Z,82.58
2023-05-11T18:15:59.343Z,82.53
2023-05-11T18:18:26.002Z,82.80
2023-05-11T18:20:52.554Z,83.22
2023-05-11T18:23:18.968Z,83.00
2023-05-11T18:25:45.403Z,83.33
2023-05-11T18:28:11.807Z,83.52
2023-05-11T18:30:38.649Z,83.61
2023-05-11T18:33:05.297Z,83.56
2023-05-11T18:35:31.763Z,84.02
2023-05-11T18:37:59.550Z,83.43
2023-05-11T18:40:26.165Z,83.67
2023-05-11T18:42:53.842Z,84.43
2023-05-11T18:45:20.350Z,84.43
2023-05-11T18:47:47.136Z,85.22
2023-05-11T18:50:13.762Z,86.55
2023-05-11T18:52:40.399Z,85.82
2023-05-11T18:55:07.358Z,86.62
2023-05-11T18:57:34.396Z,86.90
2023-05-11T19:00:01.244Z,86.37
2023-05-11T19:02:27.988Z,85.87
2023-05-11T19:04:54.599Z,85.74
2023-05-11T19:07:21.036Z,86.01
2023-05-11T19:09:47.462Z,83.08
2023-05-11T19:12:13.973Z,83.23
2023-05-11T19:14:40.474Z,84.47
2023-05-11T19:17:07.006Z,85.17
2023-05-11T19:19:34.181Z,84.63
2023-05-11T19:22:00.772Z,84.80
2023-05-11T19:24:28.090Z,85.56
2023-05-11T19:27:05.944Z,85.96
2023-05-11T19:29:34.849Z,85.44
2023-05-11T19:32:01.512Z,85.65
2023-05-11T19:34:28.046Z,86.27
2023-05-11T19:36:54.502Z,85.93
2023-05-11T19:39:20.885Z,85.12
2023-05-11T19:41:47.635Z,85.62
2023-05-11T19:44:14.142Z,84.78
2023-05-11T19:46:46.186Z,85.22
2023-05-11T19:49:13.840Z,85.74
2023-05-11T19:51:40.647Z,84.76
2023-05-11T19:54:07.223Z,84.67
2023-05-11T19:56:33.910Z,85.48
2023-05-11T19:59:00.632Z,85.79
2023-05-11T20:01:27.186Z,85.84
2023-05-11T20:03:53.964Z,85.91
2023-05-11T20:06:20.541Z,85.28
2023-05-11T20:08:48.808Z,85.79
2023-05-11T20:11:15.576Z,85.12
2023-05-11T20:13:43.863Z,84.73
2023-05-11T20:16:10.678Z,84.91
2023-05-11T20:18:37.276Z,84.19
2023-05-11T20:21:04.262Z,84.00
2023-05-11T20:23:30.695Z,84.65
2023-05-11T20:25:57.156Z,84.55
2023-05-11T20:28:27.047Z,85.25
2023-05-11T20:30:55.819Z,86.29
2023-05-11T20:35:53.319Z,87.47
2023-05-11T20:38:20.366Z,87.40
2023-05-11T20:40:46.841Z,87.91
2023-05-11T20:43:14.748Z,87.57
2023-05-11T20:45:41.914Z,87.55
2023-05-11T20:48:08.613Z,87.42
2023-05-11T20:50:35.175Z,87.20
2023-05-11T20:53:01.641Z,87.60
2023-05-11T20:55:28.207Z,86.84
2023-05-11T20:57:54.700Z,88.04
2023-05-11T21:00:21.478Z,88.32
2023-05-11T21:02:48.267Z,88.14
2023-05-11T21:05:14.957Z,88.31
2023-05-11T21:07:41.363Z,88.06
2023-05-11T21:10:10.475Z,87.91
2023-05-11T21:12:36.979Z,87.89
2023-05-11T21:15:03.727Z,87.61
2023-05-11T21:17:30.296Z,86.86
2023-05-11T21:19:56.798Z,86.16
2023-05-11T21:22:23.260Z,85.92
2023-05-11T21:24:49.765Z,86.41
2023-05-11T21:27:16.237Z,85.76
2023-05-11T21:29:42.700Z,85.99
2023-05-11T21:32:09.123Z,86.16
2023-05-11T21:34:35.791Z,86.58
2023-05-11T21:37:03.152Z,86.74
2023-05-11T21:39:29.552Z,85.29
2023-05-11T21:41:56.691Z,83.98
2023-05-11T21:44:23.215Z,83.78
2023-05-11T21:46:50.408Z,84.25
2023-05-11T21:49:17.118Z,84.44
2023-05-11T21:51:43.628Z,83.99
2023-05-11T21:54:10.202Z,83.57
2023-05-11T21:56:36.892Z,84.09
2023-05-11T21:59:03.613Z,84.37
2023-05-11T22:01:30.185Z,83.91
2023-05-11T22:03:57.071Z,85.09
2023-05-11T22:06:23.667Z,85.12
2023-05-11T22:08:50.542Z,85.49
2023-05-11T22:11:17.240Z,85.64
2023-05-11T22:13:44.541Z,85.91
2023-05-11T22:16:11.014Z,85.70
2023-05-11T22:18:37.595Z,85.54
2023-05-11T22:21:04.413Z,85.55
2023-05-11T22:23:31.765Z,85.55
2023-05-11T22:25:58.407Z,85.85
2023-05-11T22:28:24.847Z,86.30
2023-05-11T22:30:51.221Z,86.17
2023-05-11T22:33:17.710Z,87.22
2023-05-11T22:35:44.297Z,86.75
2023-05-11T22:38:10.728Z,86.51
2023-05-11T22:40:37.324Z,86.47
2023-05-11T22:43:03.740Z,86.59
2023-05-11T22:45:30.210Z,86.79
2023-05-11T22:47:56.903Z,86.29
2023-05-11T22:50:23.383Z,86.66
2023-05-11T22:52:49.900Z,86.56
2023-05-11T22:55:16.401Z,86.57
2023-05-11T22:57:43.833Z,86.74
2023-05-11T23:00:10.829Z,87.11
2023-05-11T23:02:37.986Z,87.47
2023-05-11T23:05:04.995Z,87.51
2023-05-11T23:07:31.566Z,87.67
2023-05-11T23:09:58.040Z,87.89
2023-05-11T23:12:24.690Z,86.83
2023-05-11T23:14:51.142Z,86.03
2023-05-11T23:17:17.848Z,85.86
2023-05-11T23:19:44.375Z,85.44
2023-05-11T23:22:10.966Z,86.42
2023-05-11T23:24:37.453Z,86.76
2023-05-11T23:27:04.202Z,87.11
2023-05-11T23:29:30.633Z,87.68
2023-05-11T23:31:57.122Z,86.92
2023-05-11T23:34:23.593Z,87.21
2023-05-11T23:36:50.157Z,87.92
2023-05-11T23:39:16.587Z,87.96
2023-05-11T23:41:43.013Z,87.20
2023-05-11T23:44:09.821Z,87.09
2023-05-11T23:46:36.368Z,87.05
2023-05-11T23:49:03.205Z,86.92
2023-05-11T23:51:29.744Z,86.78
2023-05-11T23:53:56.152Z,86.55
2023-05-11T23:56:22.658Z,86.66
2023-05-11T23:58:50.418Z,85.96
